This is the latest recevied weather packets stored in our database for station/object DB0GIS-11. If no packets are shown the sender has not sent any weather packets the latest 10 day(s).
| Time | Temp. | Humidity | Pressure | Rain* | Wind** | Luminosity | Snow |
|---|---|---|---|---|---|---|---|
| 1777483684 | 13.89° C | 36% | 1021.8 hPa | 0 mm | - | - | - |
| 1777482452 | 14.44° C | 36% | 1021.6 hPa | 0 mm | - | - | - |
| 1777481251 | 14.44° C | 37% | 1021.6 hPa | 0 mm | - | - | - |
| 1777480676 | 15° C | 36% | 1021.3 hPa | 0 mm | - | - | - |
| 1777476454 | 15.56° C | 37% | 1021.4 hPa | 0 mm | - | - | - |
| 1777475849 | 15.56° C | 37% | 1021.3 hPa | 0 mm | - | - | - |
| 1777472252 | 16.11° C | 37% | 1021.5 hPa | 0 mm | - | - | - |
| 1777471061 | 16.11° C | 36% | 1021.5 hPa | 0 mm | - | - | - |
| 1777457248 | 15° C | 40% | 1022.2 hPa | 0 mm | - | - | - |
| 1777456657 | 15° C | 39% | 1022.1 hPa | 0 mm | - | - | - |
| 1777456071 | 15° C | 39% | 1022.2 hPa | 0 mm | - | - | - |
| 1777453060 | 13.89° C | 41% | 1022.3 hPa | 0 mm | - | - | - |
| 1777450653 | 13.33° C | 43% | 1022.2 hPa | 0 mm | - | - | - |
| 1777447052 | 12.22° C | 48% | 1022 hPa | 0 mm | - | - | - |
| 1777446449 | 11.67° C | 48% | 1021.9 hPa | 0 mm | - | - | - |
| 1777445852 | 11.11° C | 49% | 1021.9 hPa | 0 mm | - | - | - |
| 1777445247 | 11.11° C | 49% | 1021.8 hPa | 0 mm | - | - | - |
| 1777440458 | 7.78° C | 54% | 1021.2 hPa | 0 mm | - | - | - |
| 1777436253 | 5.56° C | 54% | 1020.7 hPa | 0 mm | - | - | - |
| 1777435695 | 5.56° C | 53% | 1020.7 hPa | 0 mm | - | - | - |
| 1777433280 | 6.11° C | 51% | 1020.4 hPa | 0 mm | - | - | - |
| 1777432604 | 6.67° C | 51% | 1020.2 hPa | 0 mm | - | - | - |
| 1777430851 | 6.67° C | 50% | 1020.1 hPa | 0 mm | - | - | - |
| 1777429070 | 7.22° C | 49% | 1020.1 hPa | 0 mm | - | - | - |
| 1777428492 | 7.22° C | 49% | 1019.7 hPa | 0 mm | - | - | - |
* Rain latest hour (hover to see other rain measurements)
** Current wind speed in m/s (hover to see current wind gust speed)